Terminal Aerodrome Forecast
Issued by NWS

Home | Current Version | Previous Version | Text Only | Print | Product List | Glossary On
Versions: 1 2 3 4 5 6 7 8 9 10 11 12 13
000
FTUS45 KREV 091740
TAFCXP
TAF
KCXP 091740Z 0918/1018 19011G18KT P6SM SCT050 SCT150
     FM100500 18014G28KT P6SM BKN040 BKN070 WS020/24035KT
     FM100900 20018G30KT P6SM -SHRA SCT020 BKN035 OVC070
      WS020/25045KT
     FM101200 23016G28KT 5SM RA BR SCT018 BKN030=

USA.gov is the U.S. government's official web portal to all federal, state and local government web resources and services.